Time;durP1;ratioP1;P1;durP2;ratioP2;P2;SDS_P1;SDS_P2;PMS_P1;PMS_P2;Temp;Humidity;BMP_temperature;BMP_pressure;BME280_temperature;BME280_humidity;BME280_pressure;Samples;Min_cycle;Max_cycle;Signal;HPM_P1;HPM_P2
2023/03/25 00:02:08;;;;;;;13.40;2.28;;;16.30;77.90;;;;;;4142053;28;20076;-66
2023/03/25 00:04:52;;;;;;;7.13;2.25;;;16.30;77.60;;;;;;4143243;28;20060;-66
2023/03/25 00:07:33;;;;;;;9.60;2.25;;;16.30;77.50;;;;;;4142738;28;20385;-66
2023/03/25 00:10:15;;;;;;;8.75;2.70;;;16.30;77.80;;;;;;4159571;28;20052;-66
2023/03/25 00:12:57;;;;;;;10.23;2.25;;;16.30;77.80;;;;;;4126648;28;20070;-66
2023/03/25 00:15:37;;;;;;;;;;;16.30;77.50;;;;;;4127252;28;20061;-66
2023/03/25 00:18:18;;;;;;;6.28;1.30;;;16.30;77.80;;;;;;4126645;28;19975;-66
2023/03/25 00:21:01;;;;;;;8.20;2.13;;;16.20;79.60;;;;;;4130606;28;20053;-66
2023/03/25 00:23:42;;;;;;;7.38;1.55;;;16.20;78.70;;;;;;4142344;28;20135;-66
2023/03/25 00:26:28;;;;;;;9.52;2.17;;;16.20;78.40;;;;;;4142836;28;20148;-66
2023/03/25 00:29:09;;;;;;;13.65;2.40;;;16.20;78.50;;;;;;4141562;28;20045;-66
2023/03/25 00:31:50;;;;;;;8.23;1.43;;;16.20;78.60;;;;;;4138724;28;20049;-66
2023/03/25 00:34:33;;;;;;;7.60;1.90;;;16.20;78.30;;;;;;4142927;28;20284;-67
2023/03/25 00:37:16;;;;;;;9.63;1.80;;;16.20;78.30;;;;;;4143030;28;20065;-68
2023/03/25 00:39:57;;;;;;;7.70;1.98;;;16.20;78.20;;;;;;4114295;28;20061;-66
2023/03/25 00:42:43;;;;;;;6.20;1.50;;;16.20;78.20;;;;;;4126322;28;20061;-66
2023/03/25 00:45:24;;;;;;;10.48;2.08;;;16.20;78.20;;;;;;4119773;28;20057;-66
2023/03/25 00:48:05;;;;;;;8.45;1.80;;;16.20;78.30;;;;;;4125779;28;20057;-66
2023/03/25 00:50:47;;;;;;;6.82;2.05;;;16.20;78.50;;;;;;4130226;28;20096;-66
2023/03/25 00:53:28;;;;;;;15.38;2.50;;;16.20;78.60;;;;;;4142523;28;20405;-66
2023/03/25 00:56:09;;;;;;;11.45;2.30;;;16.20;78.70;;;;;;4132906;28;20057;-66
2023/03/25 00:58:51;;;;;;;12.63;2.75;;;16.10;79.30;;;;;;4126487;28;20508;-66
2023/03/25 01:01:32;;;;;;;7.85;1.52;;;16.10;78.50;;;;;;4133750;28;20499;-66
2023/03/25 01:04:15;;;;;;;7.97;2.38;;;16.10;78.50;;;;;;4127474;28;20062;-63
2023/03/25 01:06:56;;;;;;;9.52;2.63;;;16.10;78.60;;;;;;4128226;28;20062;-63
2023/03/25 01:09:40;;;;;;;6.72;1.52;;;16.10;78.50;;;;;;4129171;28;20104;-63
2023/03/25 01:12:21;;;;;;;12.23;2.72;;;16.10;78.90;;;;;;4125647;28;20049;-63
2023/03/25 01:15:05;;;;;;;6.65;1.98;;;16.10;79.00;;;;;;4144260;28;20138;-63
2023/03/25 01:17:46;;;;;;;10.13;1.80;;;16.10;78.80;;;;;;4144972;28;20057;-63
2023/03/25 01:20:27;;;;;;;9.68;1.85;;;16.10;78.50;;;;;;4140522;28;20061;-63
2023/03/25 01:23:09;;;;;;;;;;;16.10;78.90;;;;;;4129566;28;20053;-64
2023/03/25 01:25:49;;;;;;;13.13;2.50;;;16.10;79.20;;;;;;4128198;28;19933;-64
2023/03/25 01:28:31;;;;;;;12.90;2.15;;;16.10;79.60;;;;;;4131572;28;20048;-64
2023/03/25 01:31:15;;;;;;;9.37;2.67;;;16.10;79.40;;;;;;4143379;28;20061;-64
2023/03/25 01:33:56;;;;;;;7.80;2.15;;;16.10;79.30;;;;;;4131216;28;20128;-64
2023/03/25 01:36:40;;;;;;;8.35;1.75;;;16.20;79.40;;;;;;4128729;28;20093;-64
2023/03/25 01:39:21;;;;;;;8.63;2.17;;;16.20;79.10;;;;;;4127489;28;20563;-67
2023/03/25 01:42:02;;;;;;;7.22;1.77;;;16.30;79.10;;;;;;4112394;28;20058;-67
2023/03/25 01:45:14;;;;;;;6.72;2.15;;;16.30;79.00;;;;;;4129379;28;20057;-66
2023/03/25 01:48:03;;;;;;;8.13;2.30;;;16.30;78.70;;;;;;4144861;28;20052;-66
2023/03/25 01:50:48;;;;;;;8.98;1.85;;;16.30;79.00;;;;;;4140333;28;20060;-66
2023/03/25 01:53:31;;;;;;;9.95;2.25;;;16.30;78.80;;;;;;4143601;28;20052;-66
2023/03/25 01:56:14;;;;;;;10.00;1.98;;;16.30;78.90;;;;;;4144762;28;20165;-66
2023/03/25 01:58:56;;;;;;;5.50;1.73;;;16.30;79.10;;;;;;4143780;28;20049;-66
2023/03/25 02:01:37;;;;;;;7.97;2.50;;;16.40;79.30;;;;;;4128839;28;20065;-66
2023/03/25 02:04:26;;;;;;;10.40;1.98;;;16.40;79.20;;;;;;4112790;28;20058;-66
2023/03/25 02:07:09;;;;;;;11.68;2.15;;;16.40;78.90;;;;;;4112524;28;20062;-67
2023/03/25 02:09:50;;;;;;;8.70;2.17;;;16.40;79.00;;;;;;4113035;28;20104;-66
2023/03/25 02:12:31;;;;;;;6.70;2.15;;;16.50;78.80;;;;;;4144778;28;20503;-66
2023/03/25 02:15:13;;;;;;;11.98;2.20;;;16.40;78.80;;;;;;4143348;28;20117;-66
2023/03/25 02:18:14;;;;;;;10.57;2.97;;;16.40;78.70;;;;;;4144490;28;20080;-67
2023/03/25 02:21:44;;;;;;;5.90;2.10;;;16.40;78.90;;;;;;4112260;28;20105;-67
2023/03/25 02:25:06;;;;;;;8.70;2.45;;;16.50;78.60;;;;;;4125158;28;20408;-66
2023/03/25 02:27:57;;;;;;;13.10;3.05;;;16.50;78.30;;;;;;4144442;28;20108;-66
2023/03/25 02:30:56;;;;;;;8.90;2.40;;;16.50;78.80;;;;;;4144734;28;20045;-66
2023/03/25 02:34:08;;;;;;;10.52;2.63;;;16.50;78.20;;;;;;4143731;28;20844;-67
2023/03/25 02:37:17;;;;;;;15.75;2.50;;;16.60;78.60;;;;;;4120525;28;20053;-66
2023/03/25 02:40:05;;;;;;;7.20;2.05;;;16.60;78.60;;;;;;4142598;28;20049;-66
2023/03/25 02:42:51;;;;;;;7.55;2.10;;;16.70;78.50;;;;;;4119288;28;20054;-66
2023/03/25 02:45:37;;;;;;;14.25;3.17;;;16.80;78.10;;;;;;4138519;28;20041;-67
2023/03/25 02:48:23;;;;;;;11.77;2.58;;;16.80;77.80;;;;;;4127366;28;20492;-64
2023/03/25 02:51:10;;;;;;;8.48;2.47;;;16.80;77.70;;;;;;4126478;28;20054;-64
2023/03/25 02:53:52;;;;;;;15.55;2.47;;;16.80;77.60;;;;;;4146903;28;20405;-64
2023/03/25 02:56:36;;;;;;;19.05;3.80;;;16.80;77.50;;;;;;4152809;28;20057;-64
2023/03/25 02:59:21;;;;;;;15.52;3.10;;;16.80;77.10;;;;;;4141497;28;20052;-64
2023/03/25 03:02:06;;;;;;;9.27;2.40;;;16.80;77.00;;;;;;4137118;28;20432;-64
2023/03/25 03:04:50;;;;;;;10.77;2.90;;;16.70;77.30;;;;;;4141138;28;20132;-64
2023/03/25 03:07:35;;;;;;;11.77;3.25;;;16.70;77.50;;;;;;4131398;28;20060;-64
2023/03/25 03:10:21;;;;;;;13.95;2.38;;;16.70;77.80;;;;;;4141725;28;20052;-64
2023/03/25 03:13:15;;;;;;;14.00;3.33;;;16.60;77.80;;;;;;4143310;28;20057;-64
2023/03/25 03:16:05;;;;;;;11.27;2.72;;;16.60;78.10;;;;;;4142284;28;20488;-65
2023/03/25 03:18:57;;;;;;;11.65;2.50;;;16.60;78.30;;;;;;4143499;28;20071;-64
2023/03/25 03:21:40;;;;;;;;;;;16.60;78.20;;;;;;4136648;28;20154;-65
2023/03/25 03:24:27;;;;;;;16.13;3.00;;;16.60;78.30;;;;;;4127140;28;19936;-64
2023/03/25 03:27:15;;;;;;;14.90;2.72;;;16.70;78.30;;;;;;4132142;28;20061;-64
2023/03/25 03:30:03;;;;;;;11.88;2.80;;;16.70;78.10;;;;;;4141703;28;20112;-64
2023/03/25 03:32:52;;;;;;;15.15;2.97;;;16.60;77.80;;;;;;4142289;28;20060;-64
2023/03/25 03:35:37;;;;;;;10.35;2.53;;;16.60;78.10;;;;;;4142656;28;20628;-64
2023/03/25 03:38:20;;;;;;;10.95;3.25;;;16.70;78.30;;;;;;4142775;28;20045;-64
2023/03/25 03:41:07;;;;;;;14.80;2.97;;;16.70;78.10;;;;;;4126577;28;20057;-64
2023/03/25 03:43:51;;;;;;;9.32;2.20;;;16.70;78.10;;;;;;4129831;28;20101;-63
2023/03/25 03:46:38;;;;;;;13.65;3.35;;;16.70;78.20;;;;;;4110418;28;20061;-63
2023/03/25 03:49:23;;;;;;;15.68;3.40;;;16.70;78.10;;;;;;4110487;28;20050;-63
2023/03/25 03:52:10;;;;;;;14.07;2.88;;;16.70;78.00;;;;;;4126025;28;20103;-63
2023/03/25 03:54:54;;;;;;;10.15;2.80;;;16.70;77.90;;;;;;4126917;28;20065;-64
2023/03/25 03:57:40;;;;;;;15.68;3.60;;;16.70;78.00;;;;;;4126634;28;20189;-64
2023/03/25 04:00:26;;;;;;;10.00;2.92;;;16.70;77.70;;;;;;4131781;28;20053;-64
2023/03/25 04:03:13;;;;;;;11.23;2.63;;;16.70;77.70;;;;;;4138235;28;20057;-63
2023/03/25 04:06:01;;;;;;;13.02;2.80;;;16.70;77.70;;;;;;4146525;28;20048;-64
2023/03/25 04:08:50;;;;;;;8.38;2.88;;;16.70;77.60;;;;;;4135964;28;20057;-64
2023/03/25 04:11:35;;;;;;;18.40;3.42;;;16.70;77.70;;;;;;4138142;28;20052;-64
2023/03/25 04:14:17;;;;;;;15.77;3.42;;;16.70;77.70;;;;;;4142511;28;20119;-64
2023/03/25 04:16:58;;;;;;;11.73;3.03;;;16.70;77.70;;;;;;4134614;28;20132;-64
2023/03/25 04:19:40;;;;;;;12.27;3.03;;;16.70;77.80;;;;;;4110686;28;20541;-64
2023/03/25 04:22:21;;;;;;;12.07;2.60;;;16.70;78.10;;;;;;4125578;28;20062;-64
2023/03/25 04:25:02;;;;;;;12.75;3.13;;;16.70;78.20;;;;;;4126418;28;20128;-63
2023/03/25 04:27:47;;;;;;;14.63;2.92;;;16.70;78.00;;;;;;4126688;28;20057;-64
2023/03/25 04:30:29;;;;;;;8.75;3.05;;;16.70;78.60;;;;;;4131379;28;20116;-64
2023/03/25 04:33:10;;;;;;;13.13;3.05;;;16.70;77.80;;;;;;4154556;28;20097;-64
2023/03/25 04:35:53;;;;;;;12.52;2.80;;;16.70;77.70;;;;;;4141787;28;20487;-64
2023/03/25 04:38:36;;;;;;;11.30;2.70;;;16.70;77.70;;;;;;4143076;28;20057;-64
2023/03/25 04:41:17;;;;;;;13.73;2.65;;;16.70;77.60;;;;;;4131820;28;20072;-64
2023/03/25 04:43:57;;;;;;;11.13;2.90;;;16.70;77.80;;;;;;4129714;28;20058;-64
2023/03/25 04:46:38;;;;;;;14.73;3.35;;;16.70;77.70;;;;;;4114958;28;20053;-64
2023/03/25 04:49:21;;;;;;;10.85;2.78;;;16.60;77.90;;;;;;4123325;28;20053;-64
2023/03/25 04:52:04;;;;;;;9.80;2.35;;;16.70;78.00;;;;;;4130213;28;20053;-64
2023/03/25 04:54:45;;;;;;;8.02;2.33;;;16.70;77.80;;;;;;4144666;28;20052;-64
2023/03/25 04:57:25;;;;;;;10.10;2.42;;;16.70;77.80;;;;;;4129565;28;20069;-64
2023/03/25 05:00:10;;;;;;;12.18;2.83;;;16.80;77.90;;;;;;4113345;28;20053;-64
2023/03/25 05:02:52;;;;;;;14.68;3.05;;;16.80;77.80;;;;;;4145002;28;20064;-64
2023/03/25 05:05:34;;;;;;;10.70;2.50;;;16.70;77.50;;;;;;4146913;28;20060;-64
2023/03/25 05:08:16;;;;;;;12.65;2.83;;;16.70;77.50;;;;;;4146833;28;20056;-64
2023/03/25 05:10:57;;;;;;;12.18;2.88;;;16.70;77.70;;;;;;4148011;28;20169;-64
2023/03/25 05:13:38;;;;;;;9.07;3.13;;;16.70;78.00;;;;;;4129093;28;20389;-64
2023/03/25 05:16:19;;;;;;;16.15;3.28;;;16.70;77.80;;;;;;4128814;28;20049;-64
2023/03/25 05:19:02;;;;;;;9.77;2.65;;;16.70;77.90;;;;;;4150688;28;20091;-65
2023/03/25 05:21:43;;;;;;;9.50;2.42;;;16.70;78.00;;;;;;4161269;28;20115;-65
2023/03/25 05:24:25;;;;;;;11.57;3.13;;;16.70;78.00;;;;;;4160890;28;20064;-65
2023/03/25 05:27:06;;;;;;;10.32;2.30;;;16.70;78.00;;;;;;4160464;28;20079;-65
2023/03/25 05:29:47;;;;;;;14.67;4.07;;;16.80;77.70;;;;;;4129111;28;20073;-65
2023/03/25 05:32:32;;;;;;;11.32;2.75;;;16.80;77.50;;;;;;4128977;28;20096;-64
2023/03/25 05:35:13;;;;;;;11.05;3.03;;;16.90;77.30;;;;;;4112682;28;20058;-64
2023/03/25 05:37:54;;;;;;;15.52;3.13;;;16.80;77.30;;;;;;4129233;28;20112;-65
2023/03/25 05:40:37;;;;;;;9.73;2.70;;;16.80;77.10;;;;;;4150284;28;20069;-64
2023/03/25 05:43:21;;;;;;;16.00;3.30;;;16.90;77.10;;;;;;4128863;28;20084;-65
2023/03/25 05:46:03;;;;;;;8.85;2.53;;;16.90;76.90;;;;;;4128655;28;20184;-64
2023/03/25 05:48:45;;;;;;;10.50;2.42;;;16.90;77.00;;;;;;4144826;28;20110;-64
2023/03/25 05:51:28;;;;;;;12.68;2.97;;;16.90;77.10;;;;;;4131380;28;20062;-64
2023/03/25 05:54:10;;;;;;;8.07;2.60;;;16.80;77.00;;;;;;4130076;28;20100;-64
2023/03/25 05:56:53;;;;;;;13.85;2.92;;;16.80;77.00;;;;;;4112601;28;20419;-64
2023/03/25 05:59:33;;;;;;;9.48;2.75;;;16.80;77.00;;;;;;4113760;28;20101;-64
2023/03/25 06:02:17;;;;;;;8.00;2.60;;;16.80;77.10;;;;;;4136298;28;20052;-64
2023/03/25 06:04:57;;;;;;;12.95;2.95;;;16.90;78.20;;;;;;4140819;28;20405;-64
2023/03/25 06:07:41;;;;;;;10.30;2.72;;;16.80;77.20;;;;;;4128433;28;20157;-64
2023/03/25 06:10:22;;;;;;;12.63;3.22;;;16.80;77.10;;;;;;4128879;28;20069;-64
2023/03/25 06:13:04;;;;;;;13.32;2.65;;;16.80;77.30;;;;;;4143557;28;20052;-64
2023/03/25 06:15:46;;;;;;;12.85;2.83;;;16.80;77.20;;;;;;4128175;28;20061;-64
2023/03/25 06:18:27;;;;;;;14.05;3.13;;;16.70;77.10;;;;;;4149021;28;20048;-67
2023/03/25 06:21:10;;;;;;;15.23;3.67;;;16.70;77.20;;;;;;4159979;28;20057;-67
2023/03/25 06:23:51;;;;;;;13.52;3.00;;;16.80;77.40;;;;;;4160228;28;20514;-67
2023/03/25 06:26:34;;;;;;;14.90;3.27;;;16.80;77.60;;;;;;4160770;28;20048;-66
2023/03/25 06:29:16;;;;;;;13.65;3.15;;;16.80;77.40;;;;;;4151368;28;20292;-66
2023/03/25 06:31:57;;;;;;;20.15;3.85;;;16.80;77.00;;;;;;4127827;28;20556;-64
2023/03/25 06:34:41;;;;;;;24.33;4.03;;;16.80;76.70;;;;;;4152794;28;20065;-67
2023/03/25 06:37:24;;;;;;;12.48;2.58;;;16.90;76.80;;;;;;4127818;28;20181;-63
2023/03/25 06:40:07;;;;;;;17.48;3.70;;;16.90;77.20;;;;;;4143045;28;20535;-63
2023/03/25 06:42:49;;;;;;;16.33;3.70;;;17.00;77.00;;;;;;4131925;28;20053;-64
2023/03/25 06:45:54;;;;;;;18.02;4.10;;;17.00;76.90;;;;;;4124329;28;20050;-67
2023/03/25 06:48:43;;;;;;;12.85;3.55;;;17.00;76.70;;;;;;4132003;28;20584;-68
2023/03/25 06:51:24;;;;;;;13.68;3.10;;;17.00;76.60;;;;;;4132535;28;20072;-67
2023/03/25 06:54:05;;;;;;;10.55;2.88;;;17.00;76.80;;;;;;4140843;28;20126;-67
2023/03/25 06:56:46;;;;;;;16.85;2.97;;;16.90;76.80;;;;;;4128413;28;20183;-67
2023/03/25 06:59:27;;;;;;;15.85;2.78;;;16.90;76.20;;;;;;4139775;28;20108;-67
2023/03/25 07:02:12;;;;;;;19.38;3.85;;;16.90;76.10;;;;;;4143329;28;20508;-67
2023/03/25 07:04:52;;;;;;;14.60;3.03;;;16.80;76.10;;;;;;4126341;28;20053;-67
2023/03/25 07:07:34;;;;;;;13.40;2.90;;;16.80;76.50;;;;;;4142184;28;20056;-67
2023/03/25 07:10:14;;;;;;;12.95;2.95;;;16.80;76.10;;;;;;4143565;28;20570;-67
2023/03/25 07:12:56;;;;;;;13.68;2.97;;;16.80;75.80;;;;;;4142891;28;20049;-67
2023/03/25 07:15:37;;;;;;;14.05;3.80;;;16.80;75.70;;;;;;4132877;28;20119;-66
2023/03/25 07:18:20;;;;;;;16.52;3.42;;;16.80;75.40;;;;;;4144983;28;20049;-67
2023/03/25 07:21:00;;;;;;;18.88;4.05;;;16.80;75.20;;;;;;4127479;28;20044;-67
2023/03/25 07:23:41;;;;;;;13.13;2.92;;;16.80;75.00;;;;;;4142358;28;20057;-67
2023/03/25 07:26:22;;;;;;;19.33;3.15;;;16.80;75.20;;;;;;4142864;28;20050;-68
2023/03/25 07:29:03;;;;;;;17.88;3.38;;;16.80;75.10;;;;;;4132351;28;20132;-67
2023/03/25 07:31:45;;;;;;;12.52;3.08;;;16.90;74.70;;;;;;4126969;28;20061;-67
2023/03/25 07:34:28;;;;;;;12.57;3.22;;;17.00;74.30;;;;;;4125950;28;20054;-67
2023/03/25 07:37:09;;;;;;;11.70;1.98;;;17.10;74.00;;;;;;4142147;28;20048;-65
2023/03/25 07:39:50;;;;;;;16.33;3.50;;;17.10;73.70;;;;;;4142681;28;20139;-66
2023/03/25 07:42:31;;;;;;;10.38;2.67;;;17.10;73.30;;;;;;4129641;28;20124;-70
2023/03/25 07:45:30;;;;;;;8.50;2.45;;;17.10;73.00;;;;;;4129118;28;20058;-65
2023/03/25 07:48:13;;;;;;;5.95;1.73;;;17.00;73.10;;;;;;4140051;28;20060;-71
2023/03/25 07:50:56;;;;;;;4.60;1.67;;;17.00;73.00;;;;;;4143089;28;20048;-72
2023/03/25 07:53:37;;;;;;;5.05;1.98;;;17.00;73.10;;;;;;4136046;28;20131;-73
2023/03/25 07:56:18;;;;;;;11.00;2.00;;;16.90;73.10;;;;;;4158014;28;20179;-72
2023/03/25 07:59:00;;;;;;;10.63;2.20;;;16.80;73.50;;;;;;4159279;28;20134;-72
2023/03/25 08:01:40;;;;;;;12.70;2.63;;;16.80;73.60;;;;;;4159006;28;20063;-72
2023/03/25 08:04:21;;;;;;;7.82;2.50;;;16.70;73.70;;;;;;4131017;28;20053;-73
2023/03/25 08:07:04;;;;;;;10.15;2.92;;;16.70;73.80;;;;;;4153875;28;20048;-73
2023/03/25 08:09:44;;;;;;;16.13;2.90;;;16.60;74.80;;;;;;4137246;28;20589;-71
2023/03/25 08:12:25;;;;;;;14.68;2.95;;;16.60;74.50;;;;;;4128134;28;20053;-72
2023/03/25 08:15:07;;;;;;;12.65;3.10;;;16.70;74.40;;;;;;4130668;28;20492;-75
2023/03/25 08:17:48;;;;;;;13.93;2.63;;;16.70;74.20;;;;;;4139735;28;20065;-74
2023/03/25 08:20:29;;;;;;;11.35;3.10;;;16.80;74.00;;;;;;4129306;28;20575;-74
2023/03/25 08:23:17;;;;;;;7.65;1.85;;;16.80;74.00;;;;;;4143925;28;20052;-73
2023/03/25 08:26:01;;;;;;;7.25;1.88;;;16.90;73.50;;;;;;4150545;28;20176;-74
2023/03/25 08:28:42;;;;;;;7.90;1.63;;;16.90;73.50;;;;;;4145915;28;20717;-75
2023/03/25 08:31:23;;;;;;;7.70;1.98;;;16.90;73.10;;;;;;4145708;28;20048;-74
2023/03/25 08:34:06;;;;;;;5.03;1.83;;;16.90;72.80;;;;;;4145915;28;20053;-74
2023/03/25 08:36:46;;;;;;;7.70;2.10;;;16.90;72.90;;;;;;4145438;28;20052;-74
2023/03/25 08:39:35;;;;;;;6.80;2.22;;;16.90;72.60;;;;;;4128587;28;20140;-74
2023/03/25 08:42:17;;;;;;;9.10;2.10;;;16.80;72.80;;;;;;4145841;28;20060;-74
2023/03/25 08:44:58;;;;;;;9.98;2.17;;;16.80;73.00;;;;;;4139282;28;20065;-72
2023/03/25 08:47:41;;;;;;;;;;;16.70;73.10;;;;;;4127613;28;20073;-71
2023/03/25 08:50:22;;;;;;;8.80;2.10;;;16.70;73.30;;;;;;4135354;28;20288;-71
2023/03/25 08:53:04;;;;;;;11.63;2.78;;;16.70;73.60;;;;;;4138316;28;20144;-73
2023/03/25 08:55:47;;;;;;;9.75;2.95;;;16.60;73.60;;;;;;4137665;28;20060;-72
2023/03/25 08:58:28;;;;;;;9.52;1.98;;;16.60;73.60;;;;;;4145449;28;20386;-72
2023/03/25 09:01:10;;;;;;;12.48;2.92;;;16.60;73.90;;;;;;4153164;28;20179;-72
2023/03/25 09:03:51;;;;;;;15.52;3.85;;;16.50;73.90;;;;;;4145141;28;20048;-72
2023/03/25 09:06:32;;;;;;;15.18;3.60;;;16.50;74.00;;;;;;4144830;28;20619;-73
2023/03/25 09:09:28;;;;;;;13.18;4.05;;;16.50;74.20;;;;;;4138052;28;20053;-72
2023/03/25 09:12:10;;;;;;;15.45;5.00;;;16.50;74.20;;;;;;4158759;28;20122;-71
2023/03/25 09:14:52;;;;;;;12.35;3.55;;;16.40;74.30;;;;;;4136827;28;20050;-71
2023/03/25 09:17:33;;;;;;;12.82;3.63;;;16.40;74.50;;;;;;4115048;28;20094;-71
2023/03/25 09:20:17;;;;;;;11.98;3.25;;;16.30;74.50;;;;;;4145242;28;20045;-71
2023/03/25 09:22:58;;;;;;;10.88;3.28;;;16.30;74.60;;;;;;4132716;28;20123;-71
2023/03/25 09:25:39;;;;;;;10.57;2.78;;;16.30;74.70;;;;;;4125512;28;20119;-71
2023/03/25 09:28:22;;;;;;;13.35;2.78;;;16.30;75.00;;;;;;4143808;28;20408;-71
2023/03/25 09:31:03;;;;;;;11.85;2.88;;;16.20;75.10;;;;;;4128981;28;20049;-70
2023/03/25 09:33:44;;;;;;;11.27;3.22;;;16.20;75.30;;;;;;4144288;28;20048;-71
2023/03/25 09:36:25;;;;;;;6.82;2.35;;;16.20;75.60;;;;;;4143624;28;20049;-71
2023/03/25 09:39:05;;;;;;;16.90;3.10;;;16.20;75.50;;;;;;4113874;28;20058;-71
2023/03/25 09:42:01;;;;;;;9.32;2.83;;;16.20;75.30;;;;;;4112517;28;20142;-71
2023/03/25 09:44:55;;;;;;;9.73;2.60;;;16.20;75.30;;;;;;4113001;28;20070;-72
2023/03/25 09:47:37;;;;;;;14.80;3.20;;;16.10;75.30;;;;;;4113793;28;20049;-72
2023/03/25 09:50:19;;;;;;;10.80;2.30;;;16.10;75.40;;;;;;4112275;28;20565;-71
2023/03/25 09:53:04;;;;;;;9.10;2.45;;;16.10;75.30;;;;;;4123390;28;20056;-72
2023/03/25 09:55:47;;;;;;;8.98;1.73;;;16.10;75.50;;;;;;4127493;28;20052;-72
2023/03/25 09:58:40;;;;;;;10.45;2.03;;;16.10;75.60;;;;;;4128007;28;20477;-72
2023/03/25 10:01:36;;;;;;;10.38;2.75;;;16.10;76.60;;;;;;4127130;28;20500;-72
2023/03/25 10:04:46;;;;;;;9.40;1.88;;;16.10;75.70;;;;;;4123764;28;20049;-73
2023/03/25 10:07:46;;;;;;;10.93;1.90;;;16.10;75.60;;;;;;4128604;28;20044;-73
2023/03/25 10:10:32;;;;;;;13.40;2.72;;;16.10;75.50;;;;;;4128017;28;20049;-72
2023/03/25 10:13:22;;;;;;;11.85;2.67;;;16.00;75.30;;;;;;4111775;28;20394;-72
2023/03/25 10:16:13;;;;;;;7.68;2.00;;;16.10;75.50;;;;;;4114707;28;20064;-72
2023/03/25 10:19:06;;;;;;;4.95;1.38;;;16.00;75.40;;;;;;4130508;28;20061;-73
2023/03/25 10:21:53;;;;;;;9.70;1.65;;;16.00;76.00;;;;;;4132410;28;20053;-72
2023/03/25 10:24:39;;;;;;;13.30;2.80;;;16.10;76.80;;;;;;4135211;28;20059;-72
2023/03/25 10:27:26;;;;;;;11.95;2.00;;;16.30;77.00;;;;;;4138526;28;20073;-72
2023/03/25 10:30:13;;;;;;;8.35;2.05;;;16.50;77.30;;;;;;4142424;28;20048;-72
2023/03/25 10:32:57;;;;;;;11.77;2.25;;;16.80;76.90;;;;;;4144094;28;20096;-72
2023/03/25 10:35:43;;;;;;;12.35;2.15;;;17.00;76.80;;;;;;4144120;28;20048;-73
2023/03/25 10:38:24;;;;;;;11.40;2.60;;;17.20;75.20;;;;;;4146143;28;20057;-72
2023/03/25 10:41:15;;;;;;;9.27;2.15;;;17.40;74.80;;;;;;4142955;28;20173;-72
2023/03/25 10:43:55;;;;;;;10.43;2.33;;;17.50;74.30;;;;;;4143770;28;20526;-73
2023/03/25 10:46:46;;;;;;;13.38;2.83;;;17.60;74.30;;;;;;4142035;28;20099;-72
2023/03/25 10:49:29;;;;;;;13.17;2.53;;;17.60;74.00;;;;;;4159039;28;20114;-72
2023/03/25 10:52:11;;;;;;;10.70;2.78;;;17.60;73.80;;;;;;4132061;28;20096;-72
2023/03/25 10:54:55;;;;;;;9.30;2.72;;;17.70;74.20;;;;;;4144063;28;20400;-72
2023/03/25 10:57:37;;;;;;;11.07;2.70;;;17.70;74.20;;;;;;4142472;28;20041;-72
2023/03/25 11:00:19;;;;;;;8.90;2.60;;;17.70;74.10;;;;;;4143496;28;20584;-73
2023/03/25 11:03:00;;;;;;;10.98;2.80;;;17.70;74.10;;;;;;4132892;28;20057;-71
2023/03/25 11:05:42;;;;;;;9.15;2.85;;;17.70;74.20;;;;;;4112902;28;20050;-73
2023/03/25 11:08:26;;;;;;;8.38;2.60;;;17.70;74.60;;;;;;4112673;28;20064;-72
2023/03/25 11:11:07;;;;;;;10.85;2.55;;;17.70;75.20;;;;;;4126914;28;20049;-72
2023/03/25 11:13:56;;;;;;;11.10;2.58;;;17.70;74.40;;;;;;4128773;28;20053;-72
2023/03/25 11:16:42;;;;;;;13.55;2.75;;;17.70;74.60;;;;;;4143476;28;20050;-73
2023/03/25 11:19:27;;;;;;;6.20;2.00;;;17.60;74.50;;;;;;4143128;28;20048;-72
2023/03/25 11:22:12;;;;;;;10.07;2.65;;;17.60;74.60;;;;;;4142947;28;20095;-74
2023/03/25 11:25:00;;;;;;;13.70;2.63;;;17.60;75.00;;;;;;4143035;28;20152;-72
2023/03/25 11:27:46;;;;;;;12.68;2.53;;;17.60;75.50;;;;;;4128135;28;20074;-71
2023/03/25 11:30:27;;;;;;;8.93;2.33;;;17.60;75.50;;;;;;4126762;28;20061;-71
2023/03/25 11:33:16;;;;;;;10.10;2.83;;;17.70;75.40;;;;;;4126373;28;20053;-71
2023/03/25 11:36:11;;;;;;;14.60;3.20;;;17.80;75.20;;;;;;4126489;28;20085;-72
2023/03/25 11:38:57;;;;;;;7.03;1.88;;;17.80;74.60;;;;;;4126856;28;20184;-73
2023/03/25 11:41:39;;;;;;;11.20;2.38;;;17.80;75.10;;;;;;4126169;28;20116;-73
2023/03/25 11:44:24;;;;;;;8.60;2.08;;;17.70;75.10;;;;;;4125448;28;20124;-73
2023/03/25 11:47:08;;;;;;;12.55;2.30;;;17.70;75.00;;;;;;4126378;28;20053;-73
2023/03/25 11:49:52;;;;;;;8.88;2.63;;;17.70;75.40;;;;;;4127299;28;20513;-72
2023/03/25 11:52:40;;;;;;;10.15;3.28;;;17.60;75.30;;;;;;4129918;28;20587;-73
2023/03/25 11:55:24;;;;;;;7.13;1.52;;;17.60;76.40;;;;;;4142010;28;20508;-72
2023/03/25 11:58:07;;;;;;;10.68;2.33;;;17.50;76.10;;;;;;4142219;28;20061;-72
2023/03/25 12:00:50;;;;;;;7.53;2.30;;;17.40;76.10;;;;;;4142632;28;20060;-72
2023/03/25 12:03:33;;;;;;;9.85;2.60;;;17.40;76.30;;;;;;4130240;28;20053;-72
2023/03/25 12:06:18;;;;;;;5.28;1.83;;;17.30;77.30;;;;;;4141051;28;20065;-72
2023/03/25 12:09:00;;;;;;;9.13;1.90;;;17.30;76.40;;;;;;4142276;28;20810;-72
2023/03/25 12:11:47;;;;;;;6.45;2.42;;;17.20;76.90;;;;;;4142159;28;20519;-71
2023/03/25 12:14:41;;;;;;;10.48;2.15;;;17.30;77.10;;;;;;4140405;28;20064;-70
2023/03/25 12:17:32;;;;;;;6.78;2.05;;;17.30;76.80;;;;;;4141316;28;20049;-70
2023/03/25 12:20:24;;;;;;;7.22;1.77;;;17.30;76.60;;;;;;4125820;28;20125;-69
2023/03/25 12:23:18;;;;;;;7.57;2.13;;;17.40;76.60;;;;;;4126019;28;20060;-70
2023/03/25 12:26:09;;;;;;;8.45;2.22;;;17.40;76.10;;;;;;4126095;28;20061;-70
2023/03/25 12:29:12;;;;;;;6.87;1.70;;;17.30;76.50;;;;;;4128282;28;20061;-70
2023/03/25 12:32:05;;;;;;;5.95;1.95;;;17.30;76.50;;;;;;4142515;28;20045;-70
2023/03/25 12:34:57;;;;;;;5.80;1.55;;;17.30;76.60;;;;;;4141685;28;20147;-69
2023/03/25 12:37:55;;;;;;;7.03;1.52;;;17.20;77.00;;;;;;4141484;28;20057;-72
2023/03/25 12:40:50;;;;;;;7.80;1.67;;;17.20;77.30;;;;;;4114537;28;20110;-71
2023/03/25 12:43:43;;;;;;;6.15;1.48;;;17.20;76.90;;;;;;4141096;28;20278;-72
2023/03/25 12:46:37;;;;;;;8.15;1.70;;;17.10;77.20;;;;;;4142166;28;20056;-71
2023/03/25 12:49:51;;;;;;;6.20;1.85;;;17.10;76.50;;;;;;4152331;28;20052;-72
2023/03/25 12:52:38;;;;;;;9.77;2.17;;;17.00;76.90;;;;;;4131856;28;20508;-73
2023/03/25 12:55:36;;;;;;;8.98;2.50;;;17.00;78.00;;;;;;4138217;28;20181;-73
2023/03/25 12:58:42;;;;;;;6.07;1.60;;;17.00;78.30;;;;;;4140755;28;20045;-73
2023/03/25 13:01:29;;;;;;;6.30;1.42;;;16.90;78.50;;;;;;4145198;28;20041;-67
2023/03/25 13:04:40;;;;;;;7.65;1.67;;;16.90;79.00;;;;;;4144197;28;20048;-70
2023/03/25 13:07:28;;;;;;;8.57;2.17;;;16.90;79.50;;;;;;4143929;28;20130;-71
2023/03/25 13:10:16;;;;;;;10.48;2.03;;;16.90;79.70;;;;;;4144961;28;20060;-72
2023/03/25 13:12:58;;;;;;;9.30;2.03;;;16.80;79.80;;;;;;4143699;28;20547;-72
2023/03/25 13:15:43;;;;;;;9.55;2.25;;;16.80;79.90;;;;;;4130512;28;20512;-72
2023/03/25 13:18:28;;;;;;;5.63;1.92;;;16.80;80.10;;;;;;4133106;28;20140;-72
2023/03/25 13:21:14;;;;;;;6.43;1.90;;;16.80;80.30;;;;;;4144161;28;20054;-72
2023/03/25 13:24:01;;;;;;;5.88;1.42;;;16.70;79.60;;;;;;4143357;28;20188;-71
2023/03/25 13:26:45;;;;;;;5.20;1.30;;;16.70;80.00;;;;;;4137566;28;20057;-71
2023/03/25 13:29:30;;;;;;;7.63;1.90;;;16.70;80.30;;;;;;4127299;28;20061;-71
2023/03/25 13:32:17;;;;;;;5.70;1.45;;;16.60;80.30;;;;;;4127275;28;20417;-71
2023/03/25 13:35:04;;;;;;;5.88;1.77;;;16.60;81.00;;;;;;4128426;28;20497;-73
2023/03/25 13:37:48;;;;;;;7.60;1.38;;;16.60;80.30;;;;;;4132878;28;20065;-72
2023/03/25 13:40:36;;;;;;;5.97;1.70;;;16.60;81.20;;;;;;4118869;28;20057;-72
2023/03/25 13:43:29;;;;;;;6.00;1.70;;;16.50;81.60;;;;;;4145027;28;20184;-72
2023/03/25 13:46:14;;;;;;;6.35;1.70;;;16.50;81.20;;;;;;4143563;28;20096;-71
2023/03/25 13:48:58;;;;;;;3.97;1.60;;;16.50;82.00;;;;;;4145219;28;20404;-72
2023/03/25 13:51:39;;;;;;;11.15;1.75;;;16.50;81.60;;;;;;4140309;28;20165;-71
2023/03/25 13:54:24;;;;;;;4.00;1.35;;;16.50;81.80;;;;;;4144542;28;20561;-69
2023/03/25 13:57:29;;;;;;;4.75;1.58;;;16.50;82.10;;;;;;4127872;28;20048;-68
2023/03/25 14:01:00;;;;;;;6.63;1.30;;;16.50;81.80;;;;;;4129740;28;20189;-68
2023/03/25 14:04:13;;;;;;;3.37;1.27;;;16.50;81.50;;;;;;4126436;28;20069;-70
2023/03/25 14:07:24;;;;;;;3.80;1.13;;;16.40;82.10;;;;;;4128565;28;20059;-68
2023/03/25 14:10:29;;;;;;;4.88;1.70;;;16.40;82.40;;;;;;4129447;28;20517;-68
2023/03/25 14:13:16;;;;;;;6.50;1.50;;;16.40;83.00;;;;;;4129254;28;20286;-69
2023/03/25 14:16:02;;;;;;;7.28;1.70;;;16.40;82.30;;;;;;4132779;28;20406;-68
2023/03/25 14:18:46;;;;;;;10.02;2.10;;;16.30;82.40;;;;;;4129224;28;20045;-68